createdAt,value
2019-06-27T00:01:12.960Z,95966.46
2019-06-27T00:03:42.295Z,95967.04
2019-06-27T00:06:11.756Z,95968.84
2019-06-27T00:08:41.096Z,95977.84
2019-06-27T00:11:10.440Z,95979.18
2019-06-27T00:13:39.808Z,95978.56
2019-06-27T00:16:09.187Z,95972.05
2019-06-27T00:18:38.597Z,95969.45
2019-06-27T00:21:07.980Z,95963.34
2019-06-27T00:23:37.315Z,95964.67
2019-06-27T00:26:06.642Z,95972.72
2019-06-27T00:28:36.081Z,95975.16
2019-06-27T00:31:05.390Z,95973.52
2019-06-27T00:33:34.705Z,95968.26
2019-06-27T00:36:04.055Z,95970.11
2019-06-27T00:38:33.365Z,95964.30
2019-06-27T00:41:02.703Z,95961.59
2019-06-27T00:43:32.055Z,95963.93
2019-06-27T00:46:01.533Z,95969.03
2019-06-27T00:48:30.904Z,95961.37
2019-06-27T00:51:00.221Z,95967.62
2019-06-27T00:53:29.602Z,95966.34
2019-06-27T00:55:58.964Z,95972.02
2019-06-27T00:58:28.783Z,95963.91
2019-06-27T01:00:58.121Z,95962.24
2019-06-27T01:03:27.486Z,95962.61
2019-06-27T01:05:56.846Z,95962.95
2019-06-27T01:08:26.162Z,95960.08
2019-06-27T01:10:55.484Z,95964.98
2019-06-27T01:13:24.849Z,95959.05
2019-06-27T01:15:54.161Z,95958.61
2019-06-27T01:18:23.508Z,95960.16
2019-06-27T01:20:52.932Z,95955.08
2019-06-27T01:23:22.278Z,95956.44
2019-06-27T01:25:51.666Z,95948.73
2019-06-27T01:28:21.058Z,95947.31
2019-06-27T01:30:50.390Z,95951.13
2019-06-27T01:33:19.709Z,95944.84
2019-06-27T01:35:49.152Z,95945.50
2019-06-27T01:38:18.495Z,95939.21
2019-06-27T01:40:47.819Z,95940.92
2019-06-27T01:43:17.171Z,95944.95
2019-06-27T01:45:55.513Z,95946.25
2019-06-27T01:48:25.064Z,95943.95
2019-06-27T01:50:54.392Z,95939.18
2019-06-27T01:53:23.778Z,95946.66
2019-06-27T01:55:53.110Z,95950.84
2019-06-27T01:58:22.475Z,95948.28
2019-06-27T02:00:51.854Z,95943.12
2019-06-27T02:03:21.185Z,95940.17
2019-06-27T02:05:50.509Z,95938.45
2019-06-27T02:08:19.890Z,95939.43
2019-06-27T02:10:49.291Z,95934.83
2019-06-27T02:13:18.679Z,95930.89
2019-06-27T02:15:48.073Z,95931.92
2019-06-27T02:18:17.401Z,95933.16
2019-06-27T02:20:46.740Z,95932.28
2019-06-27T02:23:16.216Z,95929.11
2019-06-27T02:25:45.497Z,95923.42
2019-06-27T02:28:14.867Z,95925.52
2019-06-27T02:30:45.018Z,95933.47
2019-06-27T02:33:14.430Z,95927.84
2019-06-27T02:35:43.905Z,95926.21
2019-06-27T02:38:13.255Z,95924.92
2019-06-27T02:40:42.586Z,95928.95
2019-06-27T02:43:11.924Z,95926.21
2019-06-27T02:45:41.325Z,95922.92
2019-06-27T02:48:10.632Z,95929.36
2019-06-27T02:50:40.017Z,95927.28
2019-06-27T02:53:09.386Z,95925.99
2019-06-27T02:55:38.734Z,95933.16
2019-06-27T02:58:28.997Z,95928.78
2019-06-27T03:00:39.160Z,95932.50
2019-06-27T03:03:08.507Z,95930.87
2019-06-27T03:05:37.847Z,95927.89
2019-06-27T03:08:07.242Z,95923.37
2019-06-27T03:10:36.689Z,95926.16
2019-06-27T03:13:06.014Z,95920.53
2019-06-27T03:15:35.378Z,95919.12
2019-06-27T03:18:04.803Z,95926.06
2019-06-27T03:20:34.158Z,95792.84
2019-06-27T03:23:03.607Z,95924.49
2019-06-27T03:25:32.976Z,95924.81
2019-06-27T03:28:02.318Z,95922.80
2019-06-27T03:30:31.657Z,95923.87
2019-06-27T03:33:01.000Z,95932.27
2019-06-27T03:35:30.423Z,95923.34
2019-06-27T03:37:59.770Z,95929.77
2019-06-27T03:40:29.139Z,95931.89
2019-06-27T03:42:58.519Z,95932.00
2019-06-27T03:45:27.876Z,95924.23
2019-06-27T03:47:57.197Z,95927.03
2019-06-27T03:50:26.547Z,95929.65
2019-06-27T03:52:55.900Z,95933.33
2019-06-27T03:55:25.293Z,95927.33
2019-06-27T03:57:54.655Z,95935.64
2019-06-27T04:00:30.535Z,95930.89
2019-06-27T04:02:59.894Z,95929.64
2019-06-27T04:05:29.277Z,95931.13
2019-06-27T04:07:58.644Z,95929.00
2019-06-27T04:10:28.015Z,95930.37
2019-06-27T04:12:57.359Z,95921.86
2019-06-27T04:15:26.727Z,95922.78
2019-06-27T04:17:56.073Z,95916.58
2019-06-27T04:20:25.419Z,95922.70
2019-06-27T04:22:54.767Z,95919.48
2019-06-27T04:25:24.176Z,95917.20
2019-06-27T04:27:53.948Z,95917.67
2019-06-27T04:30:23.335Z,95912.11
2019-06-27T04:32:53.500Z,95915.50
2019-06-27T04:35:22.915Z,95914.47
2019-06-27T04:37:53.410Z,95916.55
2019-06-27T04:40:22.817Z,95912.09
2019-06-27T04:42:53.062Z,95916.75
2019-06-27T04:45:24.082Z,95919.28
2019-06-27T04:47:53.626Z,95913.04
2019-06-27T04:50:23.049Z,95908.98
2019-06-27T04:52:52.490Z,95915.08
2019-06-27T04:55:21.948Z,95919.42
2019-06-27T04:57:51.328Z,95916.05
2019-06-27T05:00:27.738Z,95913.14
2019-06-27T05:02:57.252Z,95913.66
2019-06-27T05:05:26.637Z,95917.84
2019-06-27T05:07:56.935Z,95911.25
2019-06-27T05:10:27.228Z,95911.70
2019-06-27T05:12:56.584Z,95916.68
2019-06-27T05:15:26.032Z,95911.45
2019-06-27T05:17:55.503Z,95908.95
2019-06-27T05:20:25.308Z,95922.66
2019-06-27T05:22:55.236Z,95922.66
2019-06-27T05:25:25.029Z,95914.80
2019-06-27T05:27:54.396Z,95916.35
2019-06-27T05:30:24.585Z,95907.88
2019-06-27T05:32:55.680Z,95908.37
2019-06-27T05:35:26.272Z,95912.42
2019-06-27T05:37:57.462Z,95911.42
2019-06-27T05:40:27.027Z,95914.52
2019-06-27T05:42:56.729Z,95912.45
2019-06-27T05:45:26.520Z,95908.58
2019-06-27T05:47:57.944Z,95908.41
2019-06-27T05:50:28.332Z,95910.05
2019-06-27T05:52:59.358Z,95905.39
2019-06-27T05:55:29.201Z,95903.08
2019-06-27T05:57:59.432Z,95903.06
2019-06-27T06:00:30.556Z,95902.97
2019-06-27T06:03:00.846Z,95903.63
2019-06-27T06:05:32.764Z,95899.48
2019-06-27T06:08:03.643Z,95901.50
2019-06-27T06:10:35.661Z,95893.78
2019-06-27T06:13:06.329Z,95895.51
2019-06-27T06:15:37.889Z,95895.69
2019-06-27T06:18:10.137Z,95895.13
2019-06-27T06:20:39.923Z,95883.25
2019-06-27T06:23:10.515Z,95884.35
2019-06-27T06:25:41.602Z,95878.95
2019-06-27T06:28:13.428Z,95885.30
2019-06-27T06:30:45.043Z,95876.67
2019-06-27T06:33:16.231Z,95875.80
2019-06-27T06:35:47.299Z,95873.66
2019-06-27T06:38:20.218Z,95878.89
2019-06-27T06:40:52.263Z,95874.64
2019-06-27T06:43:23.317Z,95873.86
2019-06-27T06:45:54.411Z,95866.72
2019-06-27T06:48:24.640Z,95870.17
2019-06-27T06:50:55.869Z,95867.17
2019-06-27T06:53:27.797Z,95859.28
2019-06-27T06:55:57.837Z,95865.12
2019-06-27T06:58:29.299Z,95863.20
2019-06-27T07:01:02.450Z,95864.13
2019-06-27T07:03:33.127Z,95860.72
2019-06-27T07:06:04.600Z,95853.16
2019-06-27T07:08:35.986Z,95850.93
2019-06-27T07:11:06.584Z,95851.41
2019-06-27T07:13:36.899Z,95848.36
2019-06-27T07:16:09.075Z,95847.67
2019-06-27T07:18:39.368Z,95844.70
2019-06-27T07:21:10.010Z,95838.62
2019-06-27T07:23:40.238Z,95839.63
2019-06-27T07:26:11.469Z,95835.55
2019-06-27T07:28:42.536Z,95833.81
2019-06-27T07:31:18.227Z,95833.89
2019-06-27T07:33:46.848Z,95828.92
2019-06-27T07:36:17.211Z,95830.53
2019-06-27T07:38:47.576Z,95817.65
2019-06-27T07:41:19.991Z,95819.12
2019-06-27T07:43:51.833Z,95818.78
2019-06-27T07:46:25.595Z,95816.03
2019-06-27T07:48:56.522Z,95809.98
2019-06-27T07:51:27.926Z,95805.47
2019-06-27T07:53:59.103Z,95811.22
2019-06-27T07:56:30.256Z,95798.34
2019-06-27T07:59:02.223Z,95804.07
2019-06-27T08:01:35.721Z,95792.91
2019-06-27T08:04:06.246Z,95788.72
2019-06-27T08:06:37.885Z,95790.42
2019-06-27T08:09:08.743Z,95788.59
2019-06-27T08:11:40.655Z,95787.82
2019-06-27T08:14:10.466Z,95781.54
2019-06-27T08:16:41.182Z,95780.29
2019-06-27T08:19:11.735Z,95774.75
2019-06-27T08:21:42.857Z,95773.27
2019-06-27T08:24:14.388Z,95775.32
2019-06-27T08:26:44.186Z,95769.20
2019-06-27T08:29:14.466Z,95767.58
2019-06-27T08:31:51.250Z,95763.95
2019-06-27T08:34:20.943Z,95760.18
2019-06-27T08:36:52.424Z,95760.16
2019-06-27T08:39:24.303Z,95753.03
2019-06-27T08:41:54.876Z,95750.79
2019-06-27T08:44:26.013Z,95744.25
2019-06-27T08:46:56.864Z,95740.69
2019-06-27T08:49:31.113Z,95735.02
2019-06-27T08:52:02.536Z,95738.35
2019-06-27T08:54:33.718Z,95736.27
2019-06-27T08:57:04.673Z,95738.01
2019-06-27T08:59:34.974Z,95727.83
2019-06-27T09:02:09.121Z,95733.42
2019-06-27T09:04:38.067Z,95729.98
2019-06-27T09:07:09.705Z,95724.28
2019-06-27T09:09:40.253Z,95721.53
2019-06-27T09:12:11.291Z,95720.13
2019-06-27T09:14:42.306Z,95717.23
2019-06-27T09:17:14.132Z,95711.63
2019-06-27T09:19:46.713Z,95710.56
2019-06-27T09:22:17.859Z,95706.45
2019-06-27T09:24:48.549Z,95717.39
2019-06-27T09:27:19.138Z,95701.75
2019-06-27T09:29:50.542Z,95700.27
2019-06-27T09:32:26.038Z,95701.82
2019-06-27T09:34:53.381Z,95700.02
2019-06-27T09:37:25.109Z,95694.52
2019-06-27T09:39:56.460Z,95694.09
2019-06-27T09:42:28.602Z,95693.86
2019-06-27T09:44:59.665Z,95679.54
2019-06-27T09:47:29.971Z,95677.09
2019-06-27T09:50:00.191Z,95670.55
2019-06-27T09:52:30.592Z,95668.76
2019-06-27T09:55:00.854Z,95670.64
2019-06-27T09:57:31.386Z,95672.27
2019-06-27T10:00:02.827Z,95665.81
2019-06-27T10:02:41.484Z,95657.66
2019-06-27T10:05:04.702Z,95657.06
2019-06-27T10:07:35.809Z,95650.39
2019-06-27T10:10:06.084Z,95654.54
2019-06-27T10:12:42.939Z,95650.50
2019-06-27T10:15:08.693Z,95643.16
2019-06-27T10:17:38.410Z,95638.59
2019-06-27T10:20:09.480Z,95640.56
2019-06-27T10:22:39.896Z,95642.86
2019-06-27T10:25:09.281Z,95633.09
2019-06-27T10:27:41.046Z,95630.30
2019-06-27T10:30:11.576Z,95626.11
2019-06-27T10:32:57.809Z,95627.42
2019-06-27T10:35:14.835Z,95622.36
2019-06-27T10:37:45.144Z,95612.20
2019-06-27T10:40:16.538Z,95618.67
2019-06-27T10:42:47.276Z,95609.57
2019-06-27T10:45:18.094Z,95615.41
2019-06-27T10:47:47.737Z,95602.31
2019-06-27T10:50:17.730Z,95599.17
2019-06-27T10:52:49.611Z,95599.91
2019-06-27T10:55:19.935Z,95592.68
2019-06-27T10:57:49.341Z,95584.94
2019-06-27T11:00:21.213Z,95584.41
2019-06-27T11:02:52.788Z,95579.19
2019-06-27T11:05:23.067Z,95577.56
2019-06-27T11:07:54.103Z,95575.70
2019-06-27T11:10:25.653Z,95572.89
2019-06-27T11:12:59.331Z,95563.73
2019-06-27T11:15:28.768Z,95567.25
2019-06-27T11:17:58.993Z,95561.43
2019-06-27T11:20:29.648Z,95557.06
2019-06-27T11:22:59.730Z,95552.25
2019-06-27T11:25:30.315Z,95549.11
2019-06-27T11:27:59.762Z,95555.91
2019-06-27T11:30:29.197Z,95547.57
2019-06-27T11:32:58.689Z,95541.10
2019-06-27T11:35:28.560Z,95533.58
2019-06-27T11:37:58.068Z,95537.05
2019-06-27T11:40:29.120Z,95535.29
2019-06-27T11:42:59.628Z,95528.70
2019-06-27T11:45:29.895Z,95527.73
2019-06-27T11:48:00.115Z,95525.04
2019-06-27T11:50:30.327Z,95519.81
2019-06-27T11:53:00.537Z,95521.22
2019-06-27T11:55:30.723Z,95506.97
2019-06-27T11:58:00.979Z,95505.88
2019-06-27T12:00:31.618Z,95503.37
2019-06-27T12:03:05.696Z,95498.11
2019-06-27T12:05:35.200Z,95498.94
2019-06-27T12:08:10.669Z,95492.80
2019-06-27T12:10:38.313Z,95487.59
2019-06-27T12:13:09.035Z,95488.98
2019-06-27T12:15:38.498Z,95488.35
2019-06-27T12:18:09.395Z,95478.09
2019-06-27T12:20:39.732Z,95481.02
2019-06-27T12:23:09.974Z,95483.06
2019-06-27T12:25:39.438Z,95482.81
2019-06-27T12:28:09.041Z,95469.21
2019-06-27T12:30:40.079Z,95469.21
2019-06-27T12:33:10.370Z,95461.97
2019-06-27T12:35:40.679Z,95459.78
2019-06-27T12:38:12.210Z,95464.77
2019-06-27T12:40:42.486Z,95459.80
2019-06-27T12:43:14.603Z,95459.80
2019-06-27T12:45:45.308Z,95465.29
2019-06-27T12:48:16.324Z,95442.07
2019-06-27T12:50:45.824Z,95430.31
2019-06-27T12:53:15.379Z,95436.67
2019-06-27T12:55:46.460Z,95442.08
2019-06-27T12:58:16.694Z,95429.02
2019-06-27T13:00:47.013Z,95433.56
2019-06-27T13:03:17.238Z,95423.08
2019-06-27T13:05:47.881Z,95288.38
2019-06-27T13:08:17.249Z,95413.58
2019-06-27T13:10:48.378Z,95416.16
2019-06-27T13:13:18.624Z,95411.84
2019-06-27T13:15:49.182Z,95406.84
2019-06-27T13:18:19.423Z,95406.49
2019-06-27T13:20:58.033Z,95396.05
2019-06-27T13:23:21.690Z,95392.97
2019-06-27T13:25:51.529Z,95392.10
2019-06-27T13:28:21.789Z,95388.86
2019-06-27T13:30:51.246Z,95387.65
2019-06-27T13:33:20.969Z,95377.30
2019-06-27T13:35:52.092Z,95377.33
2019-06-27T13:38:22.316Z,95372.06
2019-06-27T13:40:51.826Z,95370.91
2019-06-27T13:43:22.887Z,95364.25
2019-06-27T13:45:52.361Z,95362.59
2019-06-27T13:48:22.176Z,95361.34
2019-06-27T13:50:57.521Z,95361.50
2019-06-27T13:53:26.374Z,95359.28
2019-06-27T13:55:55.762Z,95356.83
2019-06-27T13:58:26.447Z,95348.25
2019-06-27T14:00:55.942Z,95345.02
2019-06-27T14:03:26.973Z,95343.19
2019-06-27T14:05:59.013Z,95339.30
2019-06-27T14:08:29.720Z,95328.92
2019-06-27T14:11:01.470Z,95337.30
2019-06-27T14:13:32.676Z,95325.92
2019-06-27T14:16:05.707Z,95324.98
2019-06-27T14:18:34.210Z,95319.92
2019-06-27T14:21:03.619Z,95314.66
2019-06-27T14:23:33.925Z,95310.82
2019-06-27T14:26:03.948Z,95311.92
2019-06-27T14:28:34.289Z,95305.11
2019-06-27T14:31:05.036Z,95295.16
2019-06-27T14:33:35.328Z,95298.87
2019-06-27T14:36:05.277Z,95294.39
2019-06-27T14:38:34.913Z,95288.30
2019-06-27T14:41:05.160Z,95011.17
2019-06-27T14:43:37.827Z,95282.94
2019-06-27T14:46:06.678Z,95277.67
2019-06-27T14:48:37.702Z,95274.87
2019-06-27T14:51:07.175Z,95271.92
2019-06-27T14:53:37.012Z,95267.73
2019-06-27T14:56:08.437Z,95265.73
2019-06-27T14:58:38.998Z,95258.25
2019-06-27T15:01:10.221Z,95266.01
2019-06-27T15:03:40.630Z,95256.38
2019-06-27T15:06:12.455Z,95244.28
2019-06-27T15:08:42.053Z,95255.64
2019-06-27T15:11:12.331Z,95249.16
2019-06-27T15:13:42.849Z,95249.31
2019-06-27T15:16:14.803Z,95250.26
2019-06-27T15:18:45.045Z,95246.19
2019-06-27T15:21:15.325Z,95239.08
2019-06-27T15:23:45.211Z,95242.20
2019-06-27T15:26:15.630Z,95232.73
2019-06-27T15:28:46.637Z,95241.11
2019-06-27T15:31:17.329Z,95233.39
2019-06-27T15:33:47.596Z,95230.15
2019-06-27T15:36:17.008Z,95225.34
2019-06-27T15:38:47.240Z,95231.05
2019-06-27T15:41:16.594Z,95227.75
2019-06-27T15:43:46.019Z,95228.55
2019-06-27T15:46:15.714Z,95219.58
2019-06-27T15:48:45.061Z,95228.38
2019-06-27T15:51:14.429Z,95229.37
2019-06-27T15:53:43.789Z,95227.80
2019-06-27T15:56:13.491Z,95213.25
2019-06-27T15:58:43.360Z,95212.95
2019-06-27T16:01:12.706Z,95203.50
2019-06-27T16:03:42.401Z,95202.25
2019-06-27T16:06:14.904Z,95207.83
2019-06-27T16:08:43.694Z,95205.98
2019-06-27T16:11:13.026Z,95213.39
2019-06-27T16:13:42.354Z,95212.01
2019-06-27T16:16:13.690Z,95210.31
2019-06-27T16:18:47.120Z,95205.04
2019-06-27T16:21:16.677Z,95213.41
2019-06-27T16:23:46.170Z,95211.54
2019-06-27T16:26:15.668Z,95204.41
2019-06-27T16:28:45.200Z,95207.05
2019-06-27T16:31:14.881Z,95206.75
2019-06-27T16:33:44.460Z,95197.13
2019-06-27T16:36:25.021Z,95201.78
2019-06-27T16:38:45.315Z,95202.87
2019-06-27T16:41:14.788Z,95208.23
2019-06-27T16:43:47.537Z,95212.84
2019-06-27T16:46:18.596Z,95212.53
2019-06-27T16:48:48.315Z,95208.65
2019-06-27T16:51:20.432Z,95210.64
2019-06-27T16:53:50.990Z,95201.08
2019-06-27T16:56:20.910Z,95212.02
2019-06-27T16:58:50.349Z,95201.80
2019-06-27T17:01:21.486Z,95207.50
2019-06-27T17:03:51.735Z,95204.23
2019-06-27T17:06:22.734Z,95206.97
2019-06-27T17:08:52.952Z,95207.48
2019-06-27T17:11:22.364Z,95206.23
2019-06-27T17:13:52.603Z,95205.01
2019-06-27T17:16:22.535Z,95198.62
2019-06-27T17:18:53.509Z,95210.66
2019-06-27T17:21:24.583Z,95202.75
2019-06-27T17:23:54.903Z,95199.60
2019-06-27T17:26:25.685Z,95203.91
2019-06-27T17:28:55.116Z,95201.25
2019-06-27T17:31:26.090Z,95202.16
2019-06-27T17:33:56.306Z,95201.02
2019-06-27T17:36:26.759Z,95203.92
2019-06-27T17:38:56.558Z,95204.16
2019-06-27T17:41:26.754Z,95107.39
2019-06-27T17:43:56.637Z,95213.97
2019-06-27T17:46:26.070Z,95206.22
2019-06-27T17:48:56.357Z,95203.88
2019-06-27T17:51:26.869Z,95205.55
2019-06-27T17:53:57.591Z,95213.07
2019-06-27T17:56:27.817Z,95208.30
2019-06-27T17:58:57.227Z,95213.30
2019-06-27T18:01:26.985Z,95205.78
2019-06-27T18:03:57.218Z,95211.99
2019-06-27T18:06:27.682Z,95224.13
2019-06-27T18:08:58.391Z,95228.25
2019-06-27T18:11:27.853Z,95225.94
2019-06-27T18:13:58.071Z,95229.42
2019-06-27T18:16:28.660Z,95226.23
2019-06-27T18:19:00.755Z,95225.27
2019-06-27T18:21:32.731Z,95233.00
2019-06-27T18:24:02.212Z,95230.98
2019-06-27T18:26:31.734Z,95223.31
2019-06-27T18:29:01.266Z,95221.55
2019-06-27T18:31:31.882Z,95222.28
2019-06-27T18:34:01.787Z,95228.61
2019-06-27T18:36:32.857Z,95230.09
2019-06-27T18:39:02.254Z,95240.34
2019-06-27T18:41:32.503Z,95243.80
2019-06-27T18:44:02.777Z,95255.31
2019-06-27T18:46:33.008Z,95252.16
2019-06-27T18:49:03.251Z,95256.79
2019-06-27T18:51:32.667Z,95262.00
2019-06-27T18:54:02.997Z,95256.30
2019-06-27T18:56:32.363Z,95243.67
2019-06-27T18:59:02.715Z,95275.03
2019-06-27T19:01:32.533Z,95279.88
2019-06-27T19:04:02.346Z,95280.78
2019-06-27T19:06:32.564Z,95279.48
2019-06-27T19:09:02.376Z,95285.30
2019-06-27T19:11:33.400Z,95284.89
2019-06-27T19:14:04.076Z,95284.04
2019-06-27T19:16:33.533Z,95288.28
2019-06-27T19:19:07.105Z,95291.16
2019-06-27T19:21:44.868Z,95296.02
2019-06-27T19:24:37.921Z,95298.27
2019-06-27T19:27:07.351Z,95302.88
2019-06-27T19:29:36.862Z,95311.86
2019-06-27T19:32:06.316Z,95310.41
2019-06-27T19:34:35.741Z,95311.68
2019-06-27T19:37:05.199Z,95302.36
2019-06-27T19:39:34.627Z,95310.94
2019-06-27T19:42:04.981Z,95313.19
2019-06-27T19:44:35.227Z,95304.55
2019-06-27T19:47:04.707Z,95305.92
2019-06-27T19:49:34.211Z,95307.81
2019-06-27T19:52:04.432Z,95311.81
2019-06-27T19:54:33.839Z,95315.02
2019-06-27T19:57:03.265Z,95317.06
2019-06-27T19:59:32.643Z,95313.62
2019-06-27T20:02:02.339Z,95305.53
2019-06-27T20:04:34.071Z,95296.73
2019-06-27T20:07:03.755Z,95304.94
2019-06-27T20:09:33.178Z,95306.73
2019-06-27T20:12:02.579Z,95301.45
2019-06-27T20:14:32.045Z,95308.88
2019-06-27T20:17:01.426Z,95314.41
2019-06-27T20:19:30.771Z,95311.14
2019-06-27T20:22:01.606Z,95315.06
2019-06-27T20:24:30.951Z,95313.69
2019-06-27T20:27:00.416Z,95314.78
2019-06-27T20:29:30.829Z,95309.34
2019-06-27T20:32:01.173Z,95313.66
2019-06-27T20:34:30.588Z,95307.43
2019-06-27T20:36:59.966Z,95309.66
2019-06-27T20:39:30.974Z,95304.82
2019-06-27T20:42:02.458Z,95303.45
2019-06-27T20:44:32.010Z,95308.64
2019-06-27T20:47:01.766Z,95306.37
2019-06-27T20:49:32.785Z,95295.52
2019-06-27T20:52:02.182Z,95291.12
2019-06-27T20:54:32.252Z,95296.84
2019-06-27T20:57:01.670Z,95300.05
2019-06-27T20:59:31.291Z,95313.86
2019-06-27T21:02:01.049Z,95310.19
2019-06-27T21:04:30.416Z,95327.72
2019-06-27T21:06:59.745Z,95327.72
2019-06-27T21:09:29.127Z,95321.53
2019-06-27T21:11:58.453Z,95321.53
2019-06-27T21:14:27.794Z,95330.17
2019-06-27T21:16:57.167Z,95325.65
2019-06-27T21:19:26.527Z,95343.96
2019-06-27T21:21:58.790Z,95343.96
2019-06-27T21:24:27.073Z,95347.55
2019-06-27T21:26:57.318Z,95331.19
2019-06-27T21:29:26.696Z,95332.58
2019-06-27T21:31:56.153Z,95336.70
2019-06-27T21:34:26.007Z,95332.26
2019-06-27T21:36:56.586Z,95336.31
2019-06-27T21:39:26.490Z,95340.33
2019-06-27T21:41:56.785Z,95335.87
2019-06-27T21:44:28.222Z,95332.08
2019-06-27T21:46:58.551Z,95333.13
2019-06-27T21:49:29.578Z,95334.02
2019-06-27T21:51:59.794Z,95334.13
2019-06-27T21:54:30.015Z,95335.05
2019-06-27T21:56:59.476Z,95331.52
2019-06-27T21:59:30.097Z,95328.31
2019-06-27T22:02:01.152Z,95344.72
2019-06-27T22:04:32.664Z,95353.05
2019-06-27T22:07:02.873Z,95353.31
2019-06-27T22:09:32.262Z,95340.97
2019-06-27T22:12:01.693Z,95343.73
2019-06-27T22:14:31.966Z,95352.03
2019-06-27T22:17:03.165Z,95339.59
2019-06-27T22:19:33.882Z,95334.19
2019-06-27T22:22:03.341Z,95330.41
2019-06-27T22:24:32.895Z,95327.81
2019-06-27T22:27:02.289Z,95321.33
2019-06-27T22:29:31.696Z,95325.67
2019-06-27T22:32:02.015Z,95321.58
2019-06-27T22:34:31.729Z,95315.95
2019-06-27T22:37:04.715Z,95314.99
2019-06-27T22:39:53.628Z,95311.28
2019-06-27T22:42:41.349Z,95302.61
2019-06-27T22:45:29.428Z,95299.59
2019-06-27T22:48:13.269Z,95294.45
2019-06-27T22:51:06.204Z,95298.54
2019-06-27T22:53:41.166Z,95295.20
2019-06-27T22:56:10.978Z,95289.69
2019-06-27T22:58:42.014Z,95280.76
2019-06-27T23:01:11.418Z,95268.40
2019-06-27T23:03:42.147Z,95266.67
2019-06-27T23:06:12.077Z,95260.81
2019-06-27T23:08:43.083Z,95259.03
2019-06-27T23:11:12.776Z,95250.10
2019-06-27T23:13:42.526Z,95244.05
2019-06-27T23:16:12.228Z,95240.39
2019-06-27T23:18:42.251Z,95245.41
2019-06-27T23:21:12.891Z,95234.88
2019-06-27T23:23:43.098Z,95233.14
2019-06-27T23:26:13.341Z,95233.14
2019-06-27T23:28:42.912Z,95235.06
2019-06-27T23:31:13.297Z,95222.73
2019-06-27T23:33:42.727Z,95231.79
2019-06-27T23:36:12.506Z,95226.61
2019-06-27T23:38:42.724Z,95232.86
2019-06-27T23:41:12.126Z,95229.36
2019-06-27T23:43:41.590Z,95230.50
2019-06-27T23:46:29.916Z,95222.42
2019-06-27T23:49:00.121Z,95218.57
2019-06-27T23:51:29.549Z,95213.72
2019-06-27T23:53:58.937Z,95198.48
2019-06-27T23:56:29.014Z,95200.88
2019-06-27T23:58:59.264Z,95185.41
